sensor_id;sensor_type;location;lat;lon;timestamp;P1;durP1;ratioP1;P2;durP2;ratioP2
11247;SDS011;5681;53.316;13.950;2022-08-19T00:00:34;5.53;;;4.95;;
11247;SDS011;5681;53.316;13.950;2022-08-19T00:03:00;6.72;;;5.38;;
11247;SDS011;5681;53.316;13.950;2022-08-19T00:05:27;5.97;;;5.47;;
11247;SDS011;5681;53.316;13.950;2022-08-19T00:07:53;7.68;;;5.53;;
11247;SDS011;5681;53.316;13.950;2022-08-19T00:10:21;5.68;;;5.10;;
11247;SDS011;5681;53.316;13.950;2022-08-19T00:12:48;5.78;;;5.28;;
11247;SDS011;5681;53.316;13.950;2022-08-19T00:15:16;6.10;;;5.50;;
11247;SDS011;5681;53.316;13.950;2022-08-19T00:17:44;6.53;;;5.30;;
11247;SDS011;5681;53.316;13.950;2022-08-19T00:20:12;5.40;;;4.90;;
11247;SDS011;5681;53.316;13.950;2022-08-19T00:22:41;8.35;;;5.65;;
11247;SDS011;5681;53.316;13.950;2022-08-19T00:25:08;5.78;;;5.25;;
11247;SDS011;5681;53.316;13.950;2022-08-19T00:27:36;6.90;;;5.07;;
11247;SDS011;5681;53.316;13.950;2022-08-19T00:30:03;5.93;;;5.35;;
11247;SDS011;5681;53.316;13.950;2022-08-19T00:32:30;6.05;;;5.43;;
11247;SDS011;5681;53.316;13.950;2022-08-19T00:34:58;7.45;;;5.22;;
11247;SDS011;5681;53.316;13.950;2022-08-19T00:37:24;5.78;;;5.28;;
11247;SDS011;5681;53.316;13.950;2022-08-19T00:39:51;5.95;;;5.32;;
11247;SDS011;5681;53.316;13.950;2022-08-19T00:42:19;6.10;;;5.45;;
11247;SDS011;5681;53.316;13.950;2022-08-19T00:44:47;6.10;;;5.07;;
11247;SDS011;5681;53.316;13.950;2022-08-19T00:47:14;6.60;;;5.72;;
11247;SDS011;5681;53.316;13.950;2022-08-19T00:49:41;6.72;;;5.57;;
11247;SDS011;5681;53.316;13.950;2022-08-19T00:52:11;6.13;;;5.63;;
11247;SDS011;5681;53.316;13.950;2022-08-19T00:54:40;7.50;;;6.72;;
11247;SDS011;5681;53.316;13.950;2022-08-19T00:57:08;7.80;;;6.28;;
11247;SDS011;5681;53.316;13.950;2022-08-19T00:59:37;7.68;;;6.60;;
11247;SDS011;5681;53.316;13.950;2022-08-19T01:02:06;10.48;;;6.30;;
11247;SDS011;5681;53.316;13.950;2022-08-19T01:04:33;7.75;;;6.43;;
11247;SDS011;5681;53.316;13.950;2022-08-19T01:07:01;7.40;;;6.70;;
11247;SDS011;5681;53.316;13.950;2022-08-19T01:09:28;7.18;;;6.40;;
11247;SDS011;5681;53.316;13.950;2022-08-19T01:11:55;9.50;;;7.95;;
11247;SDS011;5681;53.316;13.950;2022-08-19T01:14:22;7.13;;;6.43;;
11247;SDS011;5681;53.316;13.950;2022-08-19T01:16:48;7.80;;;7.00;;
11247;SDS011;5681;53.316;13.950;2022-08-19T01:19:22;7.32;;;6.63;;
11247;SDS011;5681;53.316;13.950;2022-08-19T01:21:52;7.30;;;6.60;;
11247;SDS011;5681;53.316;13.950;2022-08-19T01:24:23;9.02;;;6.47;;
11247;SDS011;5681;53.316;13.950;2022-08-19T01:26:49;6.65;;;6.00;;
11247;SDS011;5681;53.316;13.950;2022-08-19T01:29:16;6.72;;;6.13;;
11247;SDS011;5681;53.316;13.950;2022-08-19T01:31:42;6.53;;;5.93;;
11247;SDS011;5681;53.316;13.950;2022-08-19T01:34:08;6.07;;;5.50;;
11247;SDS011;5681;53.316;13.950;2022-08-19T01:36:36;7.03;;;6.20;;
11247;SDS011;5681;53.316;13.950;2022-08-19T01:39:20;6.10;;;5.60;;
11247;SDS011;5681;53.316;13.950;2022-08-19T01:41:49;6.60;;;6.00;;
11247;SDS011;5681;53.316;13.950;2022-08-19T01:44:17;7.35;;;6.20;;
11247;SDS011;5681;53.316;13.950;2022-08-19T01:46:45;6.18;;;5.68;;
11247;SDS011;5681;53.316;13.950;2022-08-19T01:49:14;6.35;;;5.75;;
11247;SDS011;5681;53.316;13.950;2022-08-19T01:51:41;6.10;;;5.57;;
11247;SDS011;5681;53.316;13.950;2022-08-19T01:54:08;6.47;;;5.97;;
11247;SDS011;5681;53.316;13.950;2022-08-19T01:56:34;7.50;;;5.70;;
11247;SDS011;5681;53.316;13.950;2022-08-19T01:59:03;6.38;;;5.78;;
11247;SDS011;5681;53.316;13.950;2022-08-19T02:01:32;6.50;;;6.00;;
11247;SDS011;5681;53.316;13.950;2022-08-19T02:03:59;6.18;;;5.68;;
11247;SDS011;5681;53.316;13.950;2022-08-19T02:06:26;6.60;;;5.63;;
11247;SDS011;5681;53.316;13.950;2022-08-19T02:08:53;6.25;;;5.75;;
11247;SDS011;5681;53.316;13.950;2022-08-19T02:11:20;7.07;;;5.63;;
11247;SDS011;5681;53.316;13.950;2022-08-19T02:13:47;6.60;;;5.97;;
11247;SDS011;5681;53.316;13.950;2022-08-19T02:16:16;6.90;;;6.20;;
11247;SDS011;5681;53.316;13.950;2022-08-19T02:18:43;6.57;;;5.47;;
11247;SDS011;5681;53.316;13.950;2022-08-19T02:21:09;6.32;;;5.70;;
11247;SDS011;5681;53.316;13.950;2022-08-19T02:23:36;6.50;;;5.88;;
11247;SDS011;5681;53.316;13.950;2022-08-19T02:26:02;7.28;;;6.57;;
11247;SDS011;5681;53.316;13.950;2022-08-19T02:28:29;7.05;;;6.40;;
11247;SDS011;5681;53.316;13.950;2022-08-19T02:30:55;7.20;;;6.60;;
11247;SDS011;5681;53.316;13.950;2022-08-19T02:33:23;6.53;;;5.93;;
11247;SDS011;5681;53.316;13.950;2022-08-19T02:35:49;7.15;;;6.55;;
11247;SDS011;5681;53.316;13.950;2022-08-19T02:38:16;7.78;;;6.63;;
11247;SDS011;5681;53.316;13.950;2022-08-19T02:40:50;7.82;;;7.03;;
11247;SDS011;5681;53.316;13.950;2022-08-19T02:43:18;9.20;;;7.00;;
11247;SDS011;5681;53.316;13.950;2022-08-19T02:45:45;8.20;;;7.50;;
11247;SDS011;5681;53.316;13.950;2022-08-19T02:48:13;7.50;;;6.80;;
11247;SDS011;5681;53.316;13.950;2022-08-19T02:50:41;7.68;;;6.65;;
11247;SDS011;5681;53.316;13.950;2022-08-19T02:53:07;8.93;;;7.15;;
11247;SDS011;5681;53.316;13.950;2022-08-19T02:55:33;9.65;;;8.55;;
11247;SDS011;5681;53.316;13.950;2022-08-19T02:58:00;11.15;;;8.85;;
11247;SDS011;5681;53.316;13.950;2022-08-19T03:00:27;11.80;;;9.00;;
11247;SDS011;5681;53.316;13.950;2022-08-19T03:02:53;15.10;;;10.23;;
11247;SDS011;5681;53.316;13.950;2022-08-19T03:05:20;13.88;;;9.80;;
11247;SDS011;5681;53.316;13.950;2022-08-19T03:07:48;10.48;;;9.30;;
11247;SDS011;5681;53.316;13.950;2022-08-19T03:10:15;13.45;;;9.85;;
11247;SDS011;5681;53.316;13.950;2022-08-19T03:12:41;12.77;;;10.35;;
11247;SDS011;5681;53.316;13.950;2022-08-19T03:15:08;17.95;;;10.93;;
11247;SDS011;5681;53.316;13.950;2022-08-19T03:17:35;15.50;;;10.65;;
11247;SDS011;5681;53.316;13.950;2022-08-19T03:20:01;15.07;;;12.10;;
11247;SDS011;5681;53.316;13.950;2022-08-19T03:22:29;14.07;;;12.40;;
11247;SDS011;5681;53.316;13.950;2022-08-19T03:24:56;18.50;;;13.60;;
11247;SDS011;5681;53.316;13.950;2022-08-19T03:27:24;17.30;;;13.55;;
11247;SDS011;5681;53.316;13.950;2022-08-19T03:29:50;16.80;;;13.68;;
11247;SDS011;5681;53.316;13.950;2022-08-19T03:32:16;17.55;;;13.88;;
11247;SDS011;5681;53.316;13.950;2022-08-19T03:34:43;14.63;;;13.23;;
11247;SDS011;5681;53.316;13.950;2022-08-19T03:37:11;16.50;;;14.10;;
11247;SDS011;5681;53.316;13.950;2022-08-19T03:39:38;15.80;;;14.25;;
11247;SDS011;5681;53.316;13.950;2022-08-19T03:42:06;15.00;;;13.43;;
11247;SDS011;5681;53.316;13.950;2022-08-19T03:44:33;15.00;;;13.52;;
11247;SDS011;5681;53.316;13.950;2022-08-19T03:47:01;15.00;;;13.40;;
11247;SDS011;5681;53.316;13.950;2022-08-19T03:49:28;17.02;;;14.60;;
11247;SDS011;5681;53.316;13.950;2022-08-19T03:51:56;15.25;;;13.82;;
11247;SDS011;5681;53.316;13.950;2022-08-19T03:54:25;14.10;;;12.90;;
11247;SDS011;5681;53.316;13.950;2022-08-19T03:56:53;15.63;;;13.48;;
11247;SDS011;5681;53.316;13.950;2022-08-19T03:59:23;17.08;;;15.38;;
11247;SDS011;5681;53.316;13.950;2022-08-19T04:01:50;16.30;;;14.70;;
11247;SDS011;5681;53.316;13.950;2022-08-19T04:04:17;15.85;;;14.25;;
11247;SDS011;5681;53.316;13.950;2022-08-19T04:06:43;17.52;;;15.73;;
11247;SDS011;5681;53.316;13.950;2022-08-19T04:09:12;15.75;;;14.30;;
11247;SDS011;5681;53.316;13.950;2022-08-19T04:11:39;20.63;;;17.08;;
11247;SDS011;5681;53.316;13.950;2022-08-19T04:14:07;20.00;;;16.38;;
11247;SDS011;5681;53.316;13.950;2022-08-19T04:16:36;19.48;;;16.48;;
11247;SDS011;5681;53.316;13.950;2022-08-19T04:19:03;18.60;;;16.25;;
11247;SDS011;5681;53.316;13.950;2022-08-19T04:21:30;18.55;;;16.58;;
11247;SDS011;5681;53.316;13.950;2022-08-19T04:23:57;25.83;;;17.27;;
11247;SDS011;5681;53.316;13.950;2022-08-19T04:26:24;29.35;;;18.02;;
11247;SDS011;5681;53.316;13.950;2022-08-19T04:28:52;27.42;;;19.95;;
11247;SDS011;5681;53.316;13.950;2022-08-19T04:31:20;25.75;;;21.20;;
11247;SDS011;5681;53.316;13.950;2022-08-19T04:33:52;30.58;;;20.83;;
11247;SDS011;5681;53.316;13.950;2022-08-19T04:36:20;27.80;;;20.83;;
11247;SDS011;5681;53.316;13.950;2022-08-19T04:38:47;22.30;;;20.02;;
11247;SDS011;5681;53.316;13.950;2022-08-19T04:41:14;20.17;;;17.42;;
11247;SDS011;5681;53.316;13.950;2022-08-19T04:43:58;25.20;;;17.65;;
11247;SDS011;5681;53.316;13.950;2022-08-19T04:46:24;18.67;;;15.93;;
11247;SDS011;5681;53.316;13.950;2022-08-19T04:48:52;19.95;;;16.52;;
11247;SDS011;5681;53.316;13.950;2022-08-19T04:51:21;22.55;;;17.42;;
11247;SDS011;5681;53.316;13.950;2022-08-19T04:53:47;23.55;;;18.83;;
11247;SDS011;5681;53.316;13.950;2022-08-19T04:56:15;20.75;;;18.67;;
11247;SDS011;5681;53.316;13.950;2022-08-19T04:58:42;19.77;;;17.77;;
11247;SDS011;5681;53.316;13.950;2022-08-19T05:01:11;25.55;;;20.33;;
11247;SDS011;5681;53.316;13.950;2022-08-19T05:03:38;21.98;;;19.60;;
11247;SDS011;5681;53.316;13.950;2022-08-19T05:06:06;21.73;;;19.58;;
11247;SDS011;5681;53.316;13.950;2022-08-19T05:08:35;24.88;;;18.92;;
11247;SDS011;5681;53.316;13.950;2022-08-19T05:11:07;24.05;;;19.55;;
11247;SDS011;5681;53.316;13.950;2022-08-19T05:13:36;24.63;;;17.80;;
11247;SDS011;5681;53.316;13.950;2022-08-19T05:16:02;19.77;;;17.63;;
11247;SDS011;5681;53.316;13.950;2022-08-19T05:18:29;17.83;;;16.00;;
11247;SDS011;5681;53.316;13.950;2022-08-19T05:21:16;18.75;;;16.17;;
11247;SDS011;5681;53.316;13.950;2022-08-19T05:24:02;21.80;;;17.15;;
11247;SDS011;5681;53.316;13.950;2022-08-19T05:26:33;17.85;;;16.05;;
11247;SDS011;5681;53.316;13.950;2022-08-19T05:28:59;16.73;;;14.52;;
11247;SDS011;5681;53.316;13.950;2022-08-19T05:31:26;18.25;;;14.55;;
11247;SDS011;5681;53.316;13.950;2022-08-19T05:33:52;18.00;;;13.88;;
11247;SDS011;5681;53.316;13.950;2022-08-19T05:36:20;14.27;;;12.80;;
11247;SDS011;5681;53.316;13.950;2022-08-19T05:38:46;14.73;;;13.07;;
11247;SDS011;5681;53.316;13.950;2022-08-19T05:41:14;13.65;;;12.20;;
11247;SDS011;5681;53.316;13.950;2022-08-19T05:43:42;17.80;;;12.55;;
11247;SDS011;5681;53.316;13.950;2022-08-19T05:46:08;15.60;;;12.65;;
11247;SDS011;5681;53.316;13.950;2022-08-19T05:48:44;18.85;;;13.50;;
11247;SDS011;5681;53.316;13.950;2022-08-19T05:51:10;15.90;;;12.65;;
11247;SDS011;5681;53.316;13.950;2022-08-19T05:53:38;14.80;;;12.88;;
11247;SDS011;5681;53.316;13.950;2022-08-19T05:56:04;14.52;;;12.85;;
11247;SDS011;5681;53.316;13.950;2022-08-19T05:58:31;13.63;;;12.32;;
11247;SDS011;5681;53.316;13.950;2022-08-19T06:00:58;17.67;;;12.90;;
11247;SDS011;5681;53.316;13.950;2022-08-19T06:03:29;13.73;;;12.15;;
11247;SDS011;5681;53.316;13.950;2022-08-19T06:05:55;15.63;;;12.45;;
11247;SDS011;5681;53.316;13.950;2022-08-19T06:08:24;14.82;;;12.73;;
11247;SDS011;5681;53.316;13.950;2022-08-19T06:10:51;15.10;;;11.73;;
11247;SDS011;5681;53.316;13.950;2022-08-19T06:13:18;14.18;;;12.63;;
11247;SDS011;5681;53.316;13.950;2022-08-19T06:15:44;13.90;;;12.70;;
11247;SDS011;5681;53.316;13.950;2022-08-19T06:18:11;15.95;;;12.93;;
11247;SDS011;5681;53.316;13.950;2022-08-19T06:20:37;13.95;;;12.77;;
11247;SDS011;5681;53.316;13.950;2022-08-19T06:23:04;13.35;;;12.15;;
11247;SDS011;5681;53.316;13.950;2022-08-19T06:25:30;14.13;;;12.73;;
11247;SDS011;5681;53.316;13.950;2022-08-19T06:27:58;13.77;;;12.38;;
11247;SDS011;5681;53.316;13.950;2022-08-19T06:30:24;13.73;;;12.43;;
11247;SDS011;5681;53.316;13.950;2022-08-19T06:32:50;12.43;;;11.15;;
11247;SDS011;5681;53.316;13.950;2022-08-19T06:35:17;12.00;;;10.90;;
11247;SDS011;5681;53.316;13.950;2022-08-19T06:37:44;11.52;;;10.35;;
11247;SDS011;5681;53.316;13.950;2022-08-19T06:40:10;11.38;;;10.20;;
11247;SDS011;5681;53.316;13.950;2022-08-19T06:42:37;11.18;;;10.02;;
11247;SDS011;5681;53.316;13.950;2022-08-19T06:45:06;10.95;;;9.80;;
11247;SDS011;5681;53.316;13.950;2022-08-19T06:47:33;11.48;;;10.38;;
11247;SDS011;5681;53.316;13.950;2022-08-19T06:50:00;11.23;;;10.23;;
11247;SDS011;5681;53.316;13.950;2022-08-19T06:52:27;10.70;;;9.55;;
11247;SDS011;5681;53.316;13.950;2022-08-19T06:54:54;11.90;;;10.68;;
11247;SDS011;5681;53.316;13.950;2022-08-19T06:57:21;11.18;;;10.10;;
11247;SDS011;5681;53.316;13.950;2022-08-19T06:59:47;10.77;;;9.77;;
11247;SDS011;5681;53.316;13.950;2022-08-19T07:02:15;11.02;;;9.80;;
11247;SDS011;5681;53.316;13.950;2022-08-19T07:04:41;10.65;;;9.65;;
11247;SDS011;5681;53.316;13.950;2022-08-19T07:07:09;10.82;;;9.82;;
11247;SDS011;5681;53.316;13.950;2022-08-19T07:09:37;13.05;;;9.98;;
11247;SDS011;5681;53.316;13.950;2022-08-19T07:12:05;10.70;;;9.63;;
11247;SDS011;5681;53.316;13.950;2022-08-19T07:14:34;11.00;;;10.00;;
11247;SDS011;5681;53.316;13.950;2022-08-19T07:17:03;10.70;;;9.32;;
11247;SDS011;5681;53.316;13.950;2022-08-19T07:19:32;10.38;;;9.50;;
11247;SDS011;5681;53.316;13.950;2022-08-19T07:22:00;10.23;;;8.95;;
11247;SDS011;5681;53.316;13.950;2022-08-19T07:24:27;10.43;;;9.35;;
11247;SDS011;5681;53.316;13.950;2022-08-19T07:26:54;9.93;;;9.02;;
11247;SDS011;5681;53.316;13.950;2022-08-19T07:29:25;10.20;;;9.30;;
11247;SDS011;5681;53.316;13.950;2022-08-19T07:31:52;10.77;;;9.77;;
11247;SDS011;5681;53.316;13.950;2022-08-19T07:34:21;10.75;;;9.73;;
11247;SDS011;5681;53.316;13.950;2022-08-19T07:36:50;9.77;;;8.90;;
11247;SDS011;5681;53.316;13.950;2022-08-19T07:39:18;9.40;;;8.50;;
11247;SDS011;5681;53.316;13.950;2022-08-19T07:41:45;10.15;;;8.88;;
11247;SDS011;5681;53.316;13.950;2022-08-19T07:44:12;9.45;;;8.60;;
11247;SDS011;5681;53.316;13.950;2022-08-19T07:46:44;8.68;;;7.88;;
11247;SDS011;5681;53.316;13.950;2022-08-19T07:49:13;7.93;;;7.03;;
11247;SDS011;5681;53.316;13.950;2022-08-19T07:51:44;7.88;;;7.18;;
11247;SDS011;5681;53.316;13.950;2022-08-19T07:54:12;7.38;;;6.68;;
11247;SDS011;5681;53.316;13.950;2022-08-19T07:56:39;8.02;;;7.25;;
11247;SDS011;5681;53.316;13.950;2022-08-19T07:59:05;10.23;;;7.45;;
11247;SDS011;5681;53.316;13.950;2022-08-19T08:01:32;8.60;;;7.80;;
11247;SDS011;5681;53.316;13.950;2022-08-19T08:03:59;7.78;;;6.97;;
11247;SDS011;5681;53.316;13.950;2022-08-19T08:06:43;8.23;;;7.40;;
11247;SDS011;5681;53.316;13.950;2022-08-19T08:09:29;8.38;;;7.55;;
11247;SDS011;5681;53.316;13.950;2022-08-19T08:11:58;8.68;;;7.47;;
11247;SDS011;5681;53.316;13.950;2022-08-19T08:14:27;8.55;;;7.25;;
11247;SDS011;5681;53.316;13.950;2022-08-19T08:16:55;9.02;;;8.15;;
11247;SDS011;5681;53.316;13.950;2022-08-19T08:19:22;11.65;;;8.43;;
11247;SDS011;5681;53.316;13.950;2022-08-19T08:21:49;10.40;;;7.28;;
11247;SDS011;5681;53.316;13.950;2022-08-19T08:24:16;8.80;;;7.28;;
11247;SDS011;5681;53.316;13.950;2022-08-19T08:26:44;8.38;;;7.53;;
11247;SDS011;5681;53.316;13.950;2022-08-19T08:29:11;8.27;;;7.35;;
11247;SDS011;5681;53.316;13.950;2022-08-19T08:31:38;8.73;;;7.43;;
11247;SDS011;5681;53.316;13.950;2022-08-19T08:34:05;7.57;;;6.82;;
11247;SDS011;5681;53.316;13.950;2022-08-19T08:36:31;7.78;;;7.07;;
11247;SDS011;5681;53.316;13.950;2022-08-19T08:38:58;7.07;;;6.35;;
11247;SDS011;5681;53.316;13.950;2022-08-19T08:41:26;8.15;;;7.35;;
11247;SDS011;5681;53.316;13.950;2022-08-19T08:43:56;8.90;;;6.90;;
11247;SDS011;5681;53.316;13.950;2022-08-19T08:46:24;8.23;;;6.95;;
11247;SDS011;5681;53.316;13.950;2022-08-19T08:48:53;8.35;;;7.55;;
11247;SDS011;5681;53.316;13.950;2022-08-19T08:51:25;8.13;;;7.32;;
11247;SDS011;5681;53.316;13.950;2022-08-19T08:53:53;10.52;;;7.70;;
11247;SDS011;5681;53.316;13.950;2022-08-19T08:56:21;8.43;;;7.57;;
11247;SDS011;5681;53.316;13.950;2022-08-19T08:58:49;11.23;;;8.05;;
11247;SDS011;5681;53.316;13.950;2022-08-19T09:01:21;9.25;;;7.40;;
11247;SDS011;5681;53.316;13.950;2022-08-19T09:03:47;10.05;;;8.85;;
11247;SDS011;5681;53.316;13.950;2022-08-19T09:06:14;9.45;;;8.45;;
11247;SDS011;5681;53.316;13.950;2022-08-19T09:08:49;8.82;;;8.02;;
11247;SDS011;5681;53.316;13.950;2022-08-19T09:11:21;8.70;;;7.80;;
11247;SDS011;5681;53.316;13.950;2022-08-19T09:13:56;8.88;;;8.07;;
11247;SDS011;5681;53.316;13.950;2022-08-19T09:16:30;9.60;;;8.60;;
11247;SDS011;5681;53.316;13.950;2022-08-19T09:18:57;10.82;;;8.48;;
11247;SDS011;5681;53.316;13.950;2022-08-19T09:21:27;13.98;;;9.57;;
11247;SDS011;5681;53.316;13.950;2022-08-19T09:23:53;10.02;;;9.20;;
11247;SDS011;5681;53.316;13.950;2022-08-19T09:26:20;9.80;;;8.75;;
11247;SDS011;5681;53.316;13.950;2022-08-19T09:28:49;9.98;;;8.98;;
11247;SDS011;5681;53.316;13.950;2022-08-19T09:31:20;11.00;;;9.10;;
11247;SDS011;5681;53.316;13.950;2022-08-19T09:33:48;10.57;;;9.00;;
11247;SDS011;5681;53.316;13.950;2022-08-19T09:36:16;9.52;;;8.68;;
11247;SDS011;5681;53.316;13.950;2022-08-19T09:38:44;12.93;;;9.05;;
11247;SDS011;5681;53.316;13.950;2022-08-19T09:41:12;11.15;;;9.57;;
11247;SDS011;5681;53.316;13.950;2022-08-19T09:43:44;9.65;;;8.82;;
11247;SDS011;5681;53.316;13.950;2022-08-19T09:46:11;10.68;;;9.05;;
11247;SDS011;5681;53.316;13.950;2022-08-19T09:48:38;10.68;;;9.68;;
11247;SDS011;5681;53.316;13.950;2022-08-19T09:51:08;11.07;;;9.98;;
11247;SDS011;5681;53.316;13.950;2022-08-19T09:53:36;12.35;;;9.88;;
11247;SDS011;5681;53.316;13.950;2022-08-19T09:56:04;10.60;;;9.68;;
11247;SDS011;5681;53.316;13.950;2022-08-19T09:58:32;10.25;;;9.25;;
11247;SDS011;5681;53.316;13.950;2022-08-19T10:00:59;10.55;;;9.52;;
11247;SDS011;5681;53.316;13.950;2022-08-19T10:03:27;13.07;;;9.80;;
11247;SDS011;5681;53.316;13.950;2022-08-19T10:05:54;11.30;;;10.10;;
11247;SDS011;5681;53.316;13.950;2022-08-19T10:08:23;10.30;;;9.40;;
11247;SDS011;5681;53.316;13.950;2022-08-19T10:10:51;11.05;;;9.43;;
11247;SDS011;5681;53.316;13.950;2022-08-19T10:13:19;10.00;;;9.05;;
11247;SDS011;5681;53.316;13.950;2022-08-19T10:15:48;10.13;;;9.18;;
11247;SDS011;5681;53.316;13.950;2022-08-19T10:18:16;9.75;;;8.80;;
11247;SDS011;5681;53.316;13.950;2022-08-19T10:20:43;10.23;;;9.32;;
11247;SDS011;5681;53.316;13.950;2022-08-19T10:23:10;10.60;;;9.50;;
11247;SDS011;5681;53.316;13.950;2022-08-19T10:25:38;10.30;;;9.40;;
11247;SDS011;5681;53.316;13.950;2022-08-19T10:28:05;10.45;;;9.05;;
11247;SDS011;5681;53.316;13.950;2022-08-19T10:30:32;9.68;;;8.68;;
11247;SDS011;5681;53.316;13.950;2022-08-19T10:32:58;10.05;;;9.05;;
11247;SDS011;5681;53.316;13.950;2022-08-19T10:35:25;12.13;;;9.10;;
11247;SDS011;5681;53.316;13.950;2022-08-19T10:37:54;10.45;;;9.45;;
11247;SDS011;5681;53.316;13.950;2022-08-19T10:40:23;10.63;;;9.52;;
11247;SDS011;5681;53.316;13.950;2022-08-19T10:42:51;9.88;;;8.98;;
11247;SDS011;5681;53.316;13.950;2022-08-19T10:45:18;10.13;;;9.07;;
11247;SDS011;5681;53.316;13.950;2022-08-19T10:47:49;11.85;;;8.93;;
11247;SDS011;5681;53.316;13.950;2022-08-19T10:50:15;10.23;;;9.20;;
11247;SDS011;5681;53.316;13.950;2022-08-19T10:53:11;9.88;;;8.85;;
11247;SDS011;5681;53.316;13.950;2022-08-19T10:55:37;9.73;;;8.52;;
11247;SDS011;5681;53.316;13.950;2022-08-19T10:58:22;9.43;;;8.43;;
11247;SDS011;5681;53.316;13.950;2022-08-19T11:00:51;9.43;;;8.48;;
11247;SDS011;5681;53.316;13.950;2022-08-19T11:03:18;9.70;;;8.80;;
11247;SDS011;5681;53.316;13.950;2022-08-19T11:05:45;9.23;;;8.18;;
11247;SDS011;5681;53.316;13.950;2022-08-19T11:08:13;8.43;;;7.45;;
11247;SDS011;5681;53.316;13.950;2022-08-19T11:10:40;10.65;;;7.97;;
11247;SDS011;5681;53.316;13.950;2022-08-19T11:13:07;11.23;;;8.20;;
11247;SDS011;5681;53.316;13.950;2022-08-19T11:15:35;9.15;;;7.75;;
11247;SDS011;5681;53.316;13.950;2022-08-19T11:18:02;8.45;;;7.63;;
11247;SDS011;5681;53.316;13.950;2022-08-19T11:20:29;8.85;;;7.95;;
11247;SDS011;5681;53.316;13.950;2022-08-19T11:22:56;8.77;;;7.43;;
11247;SDS011;5681;53.316;13.950;2022-08-19T11:25:22;8.13;;;7.43;;
11247;SDS011;5681;53.316;13.950;2022-08-19T11:27:49;7.85;;;6.97;;
11247;SDS011;5681;53.316;13.950;2022-08-19T11:30:16;9.13;;;7.38;;
11247;SDS011;5681;53.316;13.950;2022-08-19T11:32:44;8.13;;;6.45;;
11247;SDS011;5681;53.316;13.950;2022-08-19T11:35:11;8.48;;;7.53;;
11247;SDS011;5681;53.316;13.950;2022-08-19T11:37:37;11.93;;;7.25;;
11247;SDS011;5681;53.316;13.950;2022-08-19T11:40:05;8.35;;;6.95;;
11247;SDS011;5681;53.316;13.950;2022-08-19T11:42:32;7.63;;;7.00;;
11247;SDS011;5681;53.316;13.950;2022-08-19T11:45:16;8.88;;;7.15;;
11247;SDS011;5681;53.316;13.950;2022-08-19T11:47:42;7.47;;;6.70;;
11247;SDS011;5681;53.316;13.950;2022-08-19T11:50:10;7.38;;;6.55;;
11247;SDS011;5681;53.316;13.950;2022-08-19T11:52:37;7.60;;;6.30;;
11247;SDS011;5681;53.316;13.950;2022-08-19T11:55:03;7.90;;;6.63;;
11247;SDS011;5681;53.316;13.950;2022-08-19T11:57:31;9.05;;;7.00;;
11247;SDS011;5681;53.316;13.950;2022-08-19T11:59:57;8.93;;;6.38;;
11247;SDS011;5681;53.316;13.950;2022-08-19T12:02:24;6.97;;;6.28;;
11247;SDS011;5681;53.316;13.950;2022-08-19T12:04:50;8.50;;;6.70;;
11247;SDS011;5681;53.316;13.950;2022-08-19T12:07:18;8.48;;;6.68;;
11247;SDS011;5681;53.316;13.950;2022-08-19T12:09:44;7.75;;;6.50;;
11247;SDS011;5681;53.316;13.950;2022-08-19T12:12:10;7.90;;;6.28;;
11247;SDS011;5681;53.316;13.950;2022-08-19T12:14:37;7.40;;;6.68;;
11247;SDS011;5681;53.316;13.950;2022-08-19T12:17:03;7.70;;;6.90;;
11247;SDS011;5681;53.316;13.950;2022-08-19T12:19:32;9.57;;;6.43;;
11247;SDS011;5681;53.316;13.950;2022-08-19T12:21:59;6.90;;;6.30;;
11247;SDS011;5681;53.316;13.950;2022-08-19T12:24:29;8.82;;;6.70;;
11247;SDS011;5681;53.316;13.950;2022-08-19T12:26:56;7.38;;;6.72;;
11247;SDS011;5681;53.316;13.950;2022-08-19T12:29:23;7.65;;;6.88;;
11247;SDS011;5681;53.316;13.950;2022-08-19T12:31:54;6.82;;;6.10;;
11247;SDS011;5681;53.316;13.950;2022-08-19T12:34:25;7.40;;;6.70;;
11247;SDS011;5681;53.316;13.950;2022-08-19T12:36:54;10.05;;;6.30;;
11247;SDS011;5681;53.316;13.950;2022-08-19T12:39:20;8.07;;;6.50;;
11247;SDS011;5681;53.316;13.950;2022-08-19T12:41:48;9.00;;;6.25;;
11247;SDS011;5681;53.316;13.950;2022-08-19T12:44:14;7.75;;;6.32;;
11247;SDS011;5681;53.316;13.950;2022-08-19T12:46:41;9.48;;;6.72;;
11247;SDS011;5681;53.316;13.950;2022-08-19T12:49:07;9.40;;;6.40;;
11247;SDS011;5681;53.316;13.950;2022-08-19T12:51:34;7.53;;;6.72;;
11247;SDS011;5681;53.316;13.950;2022-08-19T12:54:01;6.90;;;6.30;;
11247;SDS011;5681;53.316;13.950;2022-08-19T12:56:28;7.07;;;6.40;;
11247;SDS011;5681;53.316;13.950;2022-08-19T12:58:57;8.57;;;6.43;;
11247;SDS011;5681;53.316;13.950;2022-08-19T13:01:25;7.45;;;6.75;;
11247;SDS011;5681;53.316;13.950;2022-08-19T13:03:52;7.50;;;6.43;;
11247;SDS011;5681;53.316;13.950;2022-08-19T13:06:19;9.80;;;6.18;;
11247;SDS011;5681;53.316;13.950;2022-08-19T13:08:46;7.28;;;6.60;;
11247;SDS011;5681;53.316;13.950;2022-08-19T13:11:14;7.00;;;6.03;;
11247;SDS011;5681;53.316;13.950;2022-08-19T13:13:42;7.60;;;6.50;;
11247;SDS011;5681;53.316;13.950;2022-08-19T13:16:11;7.38;;;6.43;;
11247;SDS011;5681;53.316;13.950;2022-08-19T13:18:39;7.25;;;6.55;;
11247;SDS011;5681;53.316;13.950;2022-08-19T13:21:07;10.40;;;6.43;;
11247;SDS011;5681;53.316;13.950;2022-08-19T13:23:35;8.43;;;6.63;;
11247;SDS011;5681;53.316;13.950;2022-08-19T13:26:03;6.90;;;6.20;;
11247;SDS011;5681;53.316;13.950;2022-08-19T13:28:32;10.30;;;6.07;;
11247;SDS011;5681;53.316;13.950;2022-08-19T13:31:15;6.97;;;6.28;;
11247;SDS011;5681;53.316;13.950;2022-08-19T13:34:00;7.03;;;5.85;;
11247;SDS011;5681;53.316;13.950;2022-08-19T13:36:26;7.10;;;6.28;;
11247;SDS011;5681;53.316;13.950;2022-08-19T13:38:53;6.38;;;5.78;;
11247;SDS011;5681;53.316;13.950;2022-08-19T13:41:21;6.53;;;5.85;;
11247;SDS011;5681;53.316;13.950;2022-08-19T13:43:47;6.60;;;5.95;;
11247;SDS011;5681;53.316;13.950;2022-08-19T13:46:15;9.10;;;6.22;;
11247;SDS011;5681;53.316;13.950;2022-08-19T13:48:42;6.65;;;5.95;;
11247;SDS011;5681;53.316;13.950;2022-08-19T13:51:08;7.28;;;6.00;;
11247;SDS011;5681;53.316;13.950;2022-08-19T13:53:35;7.03;;;6.25;;
11247;SDS011;5681;53.316;13.950;2022-08-19T13:56:04;6.57;;;5.95;;
11247;SDS011;5681;53.316;13.950;2022-08-19T13:58:31;12.02;;;6.22;;
11247;SDS011;5681;53.316;13.950;2022-08-19T14:00:57;8.18;;;6.65;;
11247;SDS011;5681;53.316;13.950;2022-08-19T14:03:25;8.07;;;6.47;;
11247;SDS011;5681;53.316;13.950;2022-08-19T14:05:51;6.43;;;5.85;;
11247;SDS011;5681;53.316;13.950;2022-08-19T14:08:18;6.75;;;6.15;;
11247;SDS011;5681;53.316;13.950;2022-08-19T14:10:44;7.85;;;6.43;;
11247;SDS011;5681;53.316;13.950;2022-08-19T14:13:12;7.75;;;6.90;;
11247;SDS011;5681;53.316;13.950;2022-08-19T14:15:39;7.40;;;6.70;;
11247;SDS011;5681;53.316;13.950;2022-08-19T14:18:06;7.72;;;6.53;;
11247;SDS011;5681;53.316;13.950;2022-08-19T14:20:34;7.03;;;6.30;;
11247;SDS011;5681;53.316;13.950;2022-08-19T14:23:01;6.53;;;5.93;;
11247;SDS011;5681;53.316;13.950;2022-08-19T14:25:28;7.70;;;7.00;;
11247;SDS011;5681;53.316;13.950;2022-08-19T14:27:56;9.68;;;7.20;;
11247;SDS011;5681;53.316;13.950;2022-08-19T14:30:24;10.65;;;6.75;;
11247;SDS011;5681;53.316;13.950;2022-08-19T14:32:51;7.82;;;7.03;;
11247;SDS011;5681;53.316;13.950;2022-08-19T14:35:19;7.53;;;6.72;;
11247;SDS011;5681;53.316;13.950;2022-08-19T14:37:48;7.82;;;6.63;;
11247;SDS011;5681;53.316;13.950;2022-08-19T14:40:16;7.82;;;7.05;;
11247;SDS011;5681;53.316;13.950;2022-08-19T14:42:46;9.02;;;7.00;;